createdAt,value
2022-09-25T00:01:01.601Z,7.00
2022-09-25T00:03:30.428Z,6.80
2022-09-25T00:06:06.378Z,7.20
2022-09-25T00:08:34.880Z,8.27
2022-09-25T00:11:07.173Z,9.10
2022-09-25T00:13:35.464Z,7.73
2022-09-25T00:16:04.283Z,8.47
2022-09-25T00:18:50.854Z,8.83
2022-09-25T00:21:18.826Z,9.33
2022-09-25T00:23:47.310Z,9.93
2022-09-25T00:26:16.543Z,10.23
2022-09-25T00:28:44.771Z,10.00
2022-09-25T00:31:15.491Z,8.87
2022-09-25T00:33:43.440Z,7.77
2022-09-25T00:36:12.065Z,8.43
2022-09-25T00:38:40.452Z,9.37
2022-09-25T00:41:09.134Z,9.30
2022-09-25T00:43:39.383Z,9.53
2022-09-25T00:46:17.684Z,9.07
2022-09-25T00:48:56.737Z,10.17
2022-09-25T00:51:30.014Z,9.67
2022-09-25T00:54:01.494Z,9.53
2022-09-25T00:56:30.944Z,9.77
2022-09-25T00:58:59.018Z,9.93
2022-09-25T01:01:27.359Z,9.20
2022-09-25T01:03:56.368Z,10.00
2022-09-25T01:06:26.377Z,9.57
2022-09-25T01:08:54.341Z,11.40
2022-09-25T01:11:22.263Z,11.13
2022-09-25T01:13:50.281Z,11.13
2022-09-25T01:16:27.571Z,11.17
2022-09-25T01:19:13.810Z,11.97
2022-09-25T01:21:47.578Z,13.47
2022-09-25T01:24:15.416Z,11.17
2022-09-25T01:27:01.738Z,12.00
2022-09-25T01:29:38.650Z,13.23
2022-09-25T01:32:11.452Z,12.93
2022-09-25T01:34:41.853Z,12.03
2022-09-25T01:37:14.802Z,11.23
2022-09-25T01:39:46.800Z,11.70
2022-09-25T01:42:24.174Z,12.33
2022-09-25T01:44:57.122Z,13.10
2022-09-25T01:47:29.733Z,12.93
2022-09-25T01:50:01.818Z,11.07
2022-09-25T01:52:33.348Z,11.03
2022-09-25T01:55:06.681Z,11.60
2022-09-25T01:57:38.797Z,11.93
2022-09-25T02:00:15.221Z,11.70
2022-09-25T02:02:48.665Z,12.20
2022-09-25T02:05:39.676Z,10.70
2022-09-25T02:08:19.322Z,12.30
2022-09-25T02:10:49.455Z,11.37
2022-09-25T02:13:19.488Z,9.37
2022-09-25T02:15:50.568Z,10.80
2022-09-25T02:18:39.382Z,11.67
2022-09-25T02:21:10.382Z,12.03
2022-09-25T02:23:45.399Z,14.67
2022-09-25T02:26:17.566Z,13.47
2022-09-25T02:28:45.587Z,10.40
2022-09-25T02:31:14.969Z,11.60
2022-09-25T02:33:43.163Z,13.03
2022-09-25T02:36:17.870Z,12.57
2022-09-25T02:38:46.026Z,12.07
2022-09-25T02:41:25.974Z,11.63
2022-09-25T02:44:12.599Z,10.60
2022-09-25T02:46:46.422Z,11.53
2022-09-25T02:49:23.623Z,12.10
2022-09-25T02:52:05.737Z,11.50
2022-09-25T02:54:41.528Z,10.77
2022-09-25T02:57:13.319Z,11.57
2022-09-25T02:59:46.409Z,11.53
2022-09-25T03:02:16.042Z,11.33
2022-09-25T03:04:45.407Z,11.33
2022-09-25T03:07:13.395Z,11.67
2022-09-25T03:09:42.850Z,12.17
2022-09-25T03:12:10.782Z,11.47
2022-09-25T03:14:38.724Z,10.93
2022-09-25T03:17:07.435Z,10.40
2022-09-25T03:19:35.479Z,11.00
2022-09-25T03:22:03.824Z,11.93
2022-09-25T03:24:31.725Z,10.80
2022-09-25T03:26:59.718Z,10.97
2022-09-25T03:29:27.564Z,10.03
2022-09-25T03:31:55.756Z,12.13
2022-09-25T03:34:23.631Z,13.03
2022-09-25T03:36:51.458Z,12.13
2022-09-25T03:39:19.466Z,11.27
2022-09-25T03:41:48.083Z,10.33
2022-09-25T03:44:16.190Z,10.30
2022-09-25T03:46:44.050Z,11.27
2022-09-25T03:49:13.092Z,12.80
2022-09-25T03:51:42.376Z,12.90
2022-09-25T03:54:10.383Z,12.17
2022-09-25T03:56:40.287Z,11.40
2022-09-25T03:59:08.212Z,11.57
2022-09-25T04:01:37.275Z,13.30
2022-09-25T04:04:05.415Z,12.23
2022-09-25T04:06:33.365Z,12.57
2022-09-25T04:09:01.213Z,12.80
2022-09-25T04:11:29.163Z,12.43
2022-09-25T04:13:57.576Z,11.37
2022-09-25T04:16:26.336Z,12.90
2022-09-25T04:18:54.233Z,12.67
2022-09-25T04:21:22.139Z,12.97
2022-09-25T04:24:08.698Z,13.50
2022-09-25T04:26:36.590Z,11.73
2022-09-25T04:29:05.065Z,11.23
2022-09-25T04:31:33.273Z,11.47
2022-09-25T04:34:02.784Z,12.33
2022-09-25T04:36:30.822Z,12.07
2022-09-25T04:38:58.639Z,12.07
2022-09-25T04:41:26.611Z,11.07
2022-09-25T04:43:54.475Z,11.37
2022-09-25T04:46:23.039Z,11.37
2022-09-25T04:48:51.175Z,11.33
2022-09-25T04:51:19.250Z,12.90
2022-09-25T04:53:47.503Z,11.00
2022-09-25T04:56:16.561Z,10.97
2022-09-25T04:58:46.044Z,11.80
2022-09-25T05:01:14.250Z,11.13
2022-09-25T05:03:43.129Z,13.23
2022-09-25T05:06:11.209Z,13.17
2022-09-25T05:08:39.071Z,11.43
2022-09-25T05:11:08.243Z,10.80
2022-09-25T05:13:36.692Z,10.77
2022-09-25T05:16:04.736Z,11.10
2022-09-25T05:18:32.672Z,12.17
2022-09-25T05:21:04.515Z,10.80
2022-09-25T05:23:32.429Z,9.97
2022-09-25T05:26:02.857Z,13.20
2022-09-25T05:28:31.507Z,10.93
2022-09-25T05:31:04.093Z,10.13
2022-09-25T05:33:32.606Z,11.57
2022-09-25T05:36:04.132Z,11.70
2022-09-25T05:38:35.555Z,10.33
2022-09-25T05:41:05.157Z,10.27
2022-09-25T05:43:34.086Z,11.63
2022-09-25T05:46:02.118Z,10.40
2022-09-25T05:48:30.037Z,10.10
2022-09-25T05:50:58.741Z,10.63
2022-09-25T05:53:27.373Z,8.43
2022-09-25T05:55:57.397Z,10.30
2022-09-25T05:58:25.831Z,10.40
2022-09-25T06:00:55.188Z,10.47
2022-09-25T06:03:23.297Z,9.83
2022-09-25T06:05:51.245Z,10.30
2022-09-25T06:08:19.419Z,11.00
2022-09-25T06:10:53.144Z,10.83
2022-09-25T06:13:21.366Z,9.43
2022-09-25T06:15:52.608Z,10.43
2022-09-25T06:18:21.713Z,10.00
2022-09-25T06:20:50.292Z,10.60
2022-09-25T06:23:19.022Z,11.23
2022-09-25T06:25:46.902Z,9.40
2022-09-25T06:28:14.812Z,10.97
2022-09-25T06:30:42.664Z,9.67
2022-09-25T06:33:13.074Z,10.10
2022-09-25T06:35:43.743Z,9.60
2022-09-25T06:38:11.981Z,10.03
2022-09-25T06:40:41.661Z,11.27
2022-09-25T06:43:13.898Z,10.80
2022-09-25T06:45:42.545Z,11.30
2022-09-25T06:48:12.970Z,10.13
2022-09-25T06:50:40.917Z,11.10
2022-09-25T06:53:09.001Z,10.33
2022-09-25T06:55:37.695Z,11.63
2022-09-25T06:58:06.829Z,11.57
2022-09-25T07:00:35.060Z,11.67
2022-09-25T07:03:21.901Z,10.70
2022-09-25T07:05:50.168Z,13.00
2022-09-25T07:08:21.287Z,12.53
2022-09-25T07:10:49.775Z,10.60
2022-09-25T07:13:24.778Z,11.07
2022-09-25T07:15:53.874Z,12.57
2022-09-25T07:18:25.029Z,12.30
2022-09-25T07:20:54.097Z,12.90
2022-09-25T07:23:22.845Z,12.97
2022-09-25T07:25:50.999Z,13.03
2022-09-25T07:28:20.329Z,14.00
2022-09-25T07:30:49.879Z,13.83
2022-09-25T07:33:18.053Z,12.97
2022-09-25T07:35:46.156Z,12.57
2022-09-25T07:38:14.045Z,12.70
2022-09-25T07:40:42.255Z,14.73
2022-09-25T07:43:10.182Z,12.53
2022-09-25T07:45:38.085Z,14.47
2022-09-25T07:48:06.589Z,15.27
2022-09-25T07:50:34.564Z,14.13
2022-09-25T07:53:02.524Z,14.50
2022-09-25T07:55:30.538Z,13.30
2022-09-25T07:57:58.927Z,11.93
2022-09-25T08:00:26.830Z,14.27
2022-09-25T08:02:59.191Z,14.13
2022-09-25T08:05:28.199Z,13.70
2022-09-25T08:07:56.177Z,13.73
2022-09-25T08:10:24.380Z,13.30
2022-09-25T08:12:52.486Z,12.53
2022-09-25T08:15:20.825Z,13.80
2022-09-25T08:17:48.736Z,12.80
2022-09-25T08:20:16.659Z,13.23
2022-09-25T08:22:44.581Z,13.97
2022-09-25T08:25:12.679Z,14.53
2022-09-25T08:27:41.289Z,13.70
2022-09-25T08:30:11.063Z,14.73
2022-09-25T08:32:39.535Z,14.07
2022-09-25T08:35:07.764Z,13.57
2022-09-25T08:37:35.790Z,13.27
2022-09-25T08:40:03.818Z,13.03
2022-09-25T08:42:36.880Z,14.23
2022-09-25T08:45:25.301Z,13.67
2022-09-25T08:48:13.597Z,13.70
2022-09-25T08:50:41.803Z,14.23
2022-09-25T08:53:14.835Z,13.33
2022-09-25T08:56:01.790Z,14.00
2022-09-25T08:58:35.112Z,14.07
2022-09-25T09:01:05.217Z,12.57
2022-09-25T09:03:34.197Z,14.43
2022-09-25T09:06:07.053Z,13.70
2022-09-25T09:08:37.494Z,13.13
2022-09-25T09:11:17.302Z,13.53
2022-09-25T09:13:54.874Z,13.03
2022-09-25T09:16:28.653Z,13.50
2022-09-25T09:18:57.158Z,13.87
2022-09-25T09:21:38.790Z,14.87
2022-09-25T09:24:06.963Z,14.10
2022-09-25T09:26:53.664Z,13.90
2022-09-25T09:29:44.249Z,14.50
2022-09-25T09:32:15.214Z,14.57
2022-09-25T09:35:06.173Z,15.07
2022-09-25T09:37:43.638Z,14.87
2022-09-25T09:40:44.007Z,14.77
2022-09-25T09:43:23.449Z,13.53
2022-09-25T09:46:05.108Z,14.33
2022-09-25T09:48:45.869Z,13.67
2022-09-25T09:51:19.230Z,13.63
2022-09-25T09:54:07.655Z,13.40
2022-09-25T09:56:36.740Z,14.60
2022-09-25T09:59:06.644Z,14.00
2022-09-25T10:01:42.008Z,14.03
2022-09-25T10:04:13.738Z,14.40
2022-09-25T10:07:02.063Z,14.23
2022-09-25T10:09:30.106Z,14.40
2022-09-25T10:43:04.273Z,9.07
2022-09-25T10:45:31.700Z,8.83
2022-09-25T10:48:17.740Z,9.17
2022-09-25T10:50:45.174Z,9.00
2022-09-25T10:53:30.420Z,8.57
2022-09-25T10:56:04.991Z,8.67
2022-09-25T10:58:36.059Z,9.03
2022-09-25T11:01:04.518Z,9.30
2022-09-25T11:03:36.488Z,8.27
2022-09-25T11:06:05.465Z,8.33
2022-09-25T11:08:38.960Z,7.83
2022-09-25T11:11:09.544Z,7.80
2022-09-25T11:13:58.266Z,8.00
2022-09-25T11:16:45.811Z,7.70
2022-09-25T11:19:19.846Z,7.77
2022-09-25T11:22:13.602Z,6.90
2022-09-25T11:25:00.213Z,6.00
2022-09-25T11:27:37.812Z,6.93
2022-09-25T11:30:14.345Z,7.57
2022-09-25T11:32:43.283Z,6.80
2022-09-25T11:35:22.762Z,7.20
2022-09-25T11:38:09.843Z,7.03
2022-09-25T11:41:23.010Z,6.97
2022-09-25T11:43:58.069Z,6.07
2022-09-25T11:46:26.912Z,6.07
2022-09-25T11:49:16.221Z,6.87
2022-09-25T11:52:02.300Z,7.00
2022-09-25T11:54:36.567Z,7.13
2022-09-25T11:57:07.381Z,6.70
2022-09-25T11:59:53.345Z,6.10
2022-09-25T12:02:36.965Z,6.57
2022-09-25T12:05:07.133Z,6.23
2022-09-25T12:07:40.838Z,5.93
2022-09-25T12:10:15.703Z,6.10
2022-09-25T12:13:10.213Z,6.60
2022-09-25T12:16:10.426Z,6.20
2022-09-25T12:18:49.102Z,6.10
2022-09-25T12:21:49.563Z,5.90
2022-09-25T12:24:23.951Z,6.03
2022-09-25T12:27:06.375Z,6.40
2022-09-25T12:29:39.981Z,6.00
2022-09-25T12:32:10.217Z,6.47
2022-09-25T12:34:56.695Z,6.70
2022-09-25T12:37:43.783Z,6.77
2022-09-25T12:40:17.868Z,6.30
2022-09-25T12:42:56.644Z,6.77
2022-09-25T12:45:32.499Z,6.33
2022-09-25T12:48:16.708Z,7.17
2022-09-25T12:50:49.046Z,6.40
2022-09-25T12:53:42.886Z,6.47
2022-09-25T12:56:16.607Z,5.90
2022-09-25T12:59:03.384Z,5.83
2022-09-25T13:01:34.754Z,5.23
2022-09-25T13:04:10.500Z,5.32
2022-09-25T13:06:43.877Z,5.60
2022-09-25T13:09:11.227Z,5.20
2022-09-25T13:11:47.834Z,5.33
2022-09-25T13:14:35.434Z,4.97
2022-09-25T13:17:03.452Z,5.97
2022-09-25T13:19:35.257Z,4.90
2022-09-25T13:22:05.065Z,4.60
2022-09-25T13:24:39.363Z,4.82
2022-09-25T13:27:07.250Z,5.03
2022-09-25T13:29:36.483Z,5.05
2022-09-25T13:32:23.334Z,5.05
2022-09-25T13:34:57.603Z,5.07
2022-09-25T13:37:27.790Z,5.63
2022-09-25T13:40:14.183Z,5.07
2022-09-25T13:42:42.111Z,5.22
2022-09-25T13:45:27.925Z,5.13
2022-09-25T13:47:55.340Z,4.82
2022-09-25T13:50:33.545Z,4.90
2022-09-25T13:53:22.408Z,5.13
2022-09-25T13:55:55.686Z,5.28
2022-09-25T13:58:24.177Z,4.93
2022-09-25T14:00:55.913Z,5.05
2022-09-25T14:03:30.369Z,4.97
2022-09-25T14:05:58.722Z,4.72
2022-09-25T14:08:28.025Z,4.78
2022-09-25T14:10:57.272Z,4.60
2022-09-25T14:13:26.834Z,4.53
2022-09-25T14:15:56.784Z,4.88
2022-09-25T14:18:33.009Z,2.40
2022-09-25T14:21:00.746Z,1.67
2022-09-25T14:23:33.451Z,1.30
2022-09-25T14:26:01.827Z,1.52
2022-09-25T14:28:30.584Z,1.40
2022-09-25T14:30:57.931Z,1.30
2022-09-25T14:33:38.691Z,1.00
2022-09-25T14:36:06.130Z,1.20
2022-09-25T14:38:37.255Z,1.10
2022-09-25T14:41:23.535Z,1.10
2022-09-25T14:43:57.103Z,1.45
2022-09-25T14:46:24.738Z,2.83
2022-09-25T14:49:01.050Z,2.10
2022-09-25T14:51:34.131Z,2.10
2022-09-25T14:54:04.099Z,1.73
2022-09-25T14:56:35.660Z,1.30
2022-09-25T14:59:07.641Z,1.38
2022-09-25T15:01:35.297Z,1.30
2022-09-25T15:04:03.938Z,1.50
2022-09-25T15:06:33.213Z,1.48
2022-09-25T15:09:04.292Z,1.53
2022-09-25T15:11:44.357Z,1.63
2022-09-25T15:14:20.060Z,1.73
2022-09-25T15:17:06.608Z,2.60
2022-09-25T15:19:35.667Z,2.50
2022-09-25T15:22:03.080Z,2.63
2022-09-25T15:24:32.701Z,2.33
2022-09-25T15:27:05.169Z,1.73
2022-09-25T15:29:35.602Z,1.90
2022-09-25T15:32:03.631Z,1.63
2022-09-25T15:34:32.175Z,1.58
2022-09-25T15:37:16.533Z,1.50
2022-09-25T15:39:46.731Z,1.80
2022-09-25T15:42:15.149Z,3.30
2022-09-25T15:44:42.720Z,1.90
2022-09-25T15:47:29.115Z,1.95
2022-09-25T15:49:57.736Z,1.70
2022-09-25T15:52:32.759Z,1.77
2022-09-25T15:55:01.495Z,1.70
2022-09-25T15:57:29.991Z,2.93
2022-09-25T16:00:19.218Z,3.07
2022-09-25T16:03:15.878Z,2.42
2022-09-25T16:05:46.293Z,2.10
2022-09-25T16:08:26.115Z,1.33
2022-09-25T16:11:17.289Z,1.40
2022-09-25T16:13:47.590Z,1.70
2022-09-25T16:16:32.093Z,1.50
2022-09-25T16:19:01.359Z,1.60
2022-09-25T16:21:29.130Z,2.53
2022-09-25T16:23:58.394Z,2.00
2022-09-25T16:26:28.933Z,1.43
2022-09-25T16:28:56.597Z,1.50
2022-09-25T16:31:25.075Z,1.60
2022-09-25T16:33:55.158Z,12.93
2022-09-25T16:36:22.716Z,6.68
2022-09-25T16:39:13.010Z,3.42
2022-09-25T16:41:43.553Z,6.27
2022-09-25T16:44:14.525Z,2.80
2022-09-25T16:46:42.904Z,2.30
2022-09-25T16:49:12.347Z,2.17
2022-09-25T16:51:45.494Z,2.07
2022-09-25T16:54:16.593Z,2.00
2022-09-25T16:56:44.811Z,1.90
2022-09-25T16:59:21.817Z,1.90
2022-09-25T17:01:53.552Z,2.07
2022-09-25T17:04:22.955Z,1.87
2022-09-25T17:06:50.450Z,1.67
2022-09-25T17:09:18.828Z,1.70
2022-09-25T17:11:47.317Z,1.60
2022-09-25T17:14:32.538Z,1.70
2022-09-25T17:17:00.073Z,1.40
2022-09-25T17:19:28.076Z,1.40
2022-09-25T17:21:56.255Z,1.70
2022-09-25T17:24:26.216Z,1.60
2022-09-25T17:26:53.749Z,1.47
2022-09-25T17:29:21.656Z,1.40
2022-09-25T17:31:49.241Z,1.43
2022-09-25T17:34:17.682Z,1.53
2022-09-25T17:36:45.504Z,1.50
2022-09-25T17:39:13.316Z,1.20
2022-09-25T17:41:42.053Z,1.50
2022-09-25T17:44:28.838Z,1.20
2022-09-25T17:46:56.271Z,1.20
2022-09-25T17:49:25.248Z,1.50
2022-09-25T17:51:53.111Z,1.30
2022-09-25T17:54:21.425Z,1.40
2022-09-25T17:56:49.982Z,1.20
2022-09-25T17:59:23.494Z,1.40
2022-09-25T18:01:51.197Z,1.40
2022-09-25T18:04:18.849Z,1.27
2022-09-25T18:06:46.274Z,1.40
2022-09-25T18:09:13.758Z,1.10
2022-09-25T18:11:44.180Z,1.70
2022-09-25T18:14:12.790Z,1.83
2022-09-25T18:16:41.469Z,1.70
2022-09-25T18:19:33.112Z,1.90
2022-09-25T18:22:25.366Z,1.53
2022-09-25T18:24:57.182Z,2.00
2022-09-25T18:27:33.315Z,1.93
2022-09-25T18:30:00.895Z,1.53
2022-09-25T18:32:28.402Z,1.50
2022-09-25T18:34:55.744Z,1.50
2022-09-25T18:37:23.149Z,1.50
2022-09-25T18:39:51.222Z,1.50
2022-09-25T18:42:18.665Z,1.47
2022-09-25T18:44:46.219Z,1.40
2022-09-25T18:47:14.125Z,1.40
2022-09-25T18:49:42.353Z,1.47
2022-09-25T18:52:11.670Z,1.33
2022-09-25T18:54:42.351Z,1.30
2022-09-25T18:57:10.585Z,1.30
2022-09-25T18:59:38.893Z,1.30
2022-09-25T19:02:07.113Z,1.67
2022-09-25T19:04:36.054Z,1.63
2022-09-25T19:07:03.698Z,1.53
2022-09-25T19:09:31.186Z,1.90
2022-09-25T19:11:59.079Z,1.60
2022-09-25T19:14:27.711Z,1.50
2022-09-25T19:16:55.309Z,1.53
2022-09-25T19:19:23.027Z,1.53
2022-09-25T19:21:50.413Z,1.50
2022-09-25T19:24:18.479Z,1.40
2022-09-25T19:26:46.420Z,1.63
2022-09-25T19:29:14.052Z,1.30
2022-09-25T19:31:41.731Z,1.70
2022-09-25T19:34:10.184Z,1.87
2022-09-25T19:36:38.527Z,1.80
2022-09-25T19:39:06.037Z,2.00
2022-09-25T19:41:35.222Z,2.17
2022-09-25T19:44:08.123Z,2.20
2022-09-25T19:46:41.583Z,1.60
2022-09-25T19:49:09.847Z,1.50
2022-09-25T19:51:37.817Z,1.60
2022-09-25T19:54:07.540Z,1.50
2022-09-25T19:56:40.651Z,1.60
2022-09-25T19:59:09.548Z,1.60
2022-09-25T20:01:38.378Z,2.07
2022-09-25T20:04:08.407Z,2.10
2022-09-25T20:06:36.922Z,1.70
2022-09-25T20:09:04.895Z,1.90
2022-09-25T20:11:33.311Z,2.10
2022-09-25T20:14:02.005Z,2.10
2022-09-25T20:16:30.030Z,2.30
2022-09-25T20:19:02.877Z,2.57
2022-09-25T20:21:32.672Z,2.00
2022-09-25T20:24:01.655Z,1.90
2022-09-25T20:26:29.889Z,1.80
2022-09-25T20:29:02.011Z,2.40
2022-09-25T20:31:30.690Z,2.13
2022-09-25T20:33:58.069Z,2.20
2022-09-25T20:36:25.597Z,2.30
2022-09-25T20:38:54.027Z,2.20
2022-09-25T20:41:21.829Z,2.10
2022-09-25T20:43:50.161Z,2.50
2022-09-25T20:46:19.663Z,2.60
2022-09-25T20:48:47.887Z,2.50
2022-09-25T20:51:16.726Z,2.20
2022-09-25T20:53:44.462Z,2.00
2022-09-25T20:56:13.073Z,2.00
2022-09-25T20:58:41.335Z,2.10
2022-09-25T21:01:12.790Z,1.97
2022-09-25T21:03:41.438Z,1.90
2022-09-25T21:06:11.044Z,2.00
2022-09-25T21:08:38.434Z,2.10
2022-09-25T21:11:06.295Z,2.37
2022-09-25T21:13:34.481Z,2.77
2022-09-25T21:16:05.785Z,2.17
2022-09-25T21:18:37.036Z,2.10
2022-09-25T21:21:08.919Z,2.10
2022-09-25T21:23:36.441Z,2.97
2022-09-25T21:26:13.999Z,2.73
2022-09-25T21:28:42.835Z,2.40
2022-09-25T21:31:17.449Z,2.53
2022-09-25T21:33:45.260Z,2.43
2022-09-25T21:36:13.975Z,2.87
2022-09-25T21:38:41.571Z,2.83
2022-09-25T21:41:10.436Z,2.70
2022-09-25T21:43:38.548Z,3.63
2022-09-25T21:46:08.253Z,2.57
2022-09-25T21:48:36.667Z,2.80
2022-09-25T21:51:04.990Z,2.83
2022-09-25T21:53:33.852Z,2.77
2022-09-25T21:56:02.437Z,3.50
2022-09-25T21:58:30.586Z,3.20
2022-09-25T22:01:07.008Z,3.03
2022-09-25T22:03:35.435Z,2.70
2022-09-25T22:06:03.534Z,2.80
2022-09-25T22:08:31.895Z,3.13
2022-09-25T22:10:59.869Z,3.03
2022-09-25T22:13:28.236Z,3.40
2022-09-25T22:16:09.433Z,3.30
2022-09-25T22:18:53.870Z,3.70
2022-09-25T22:21:22.429Z,3.73
2022-09-25T22:23:50.067Z,4.40
2022-09-25T22:26:17.979Z,3.73
2022-09-25T22:28:45.927Z,3.70
2022-09-25T22:31:17.358Z,4.03
2022-09-25T22:33:44.898Z,3.87
2022-09-25T22:36:12.786Z,3.60
2022-09-25T22:38:40.500Z,3.40
2022-09-25T22:41:09.936Z,3.40
2022-09-25T22:43:37.447Z,3.60
2022-09-25T22:46:05.524Z,3.47
2022-09-25T22:48:33.369Z,3.80
2022-09-25T22:51:05.505Z,3.40
2022-09-25T22:53:34.337Z,3.63
2022-09-25T22:56:37.218Z,3.97
2022-09-25T22:59:06.468Z,3.77
2022-09-25T23:01:41.645Z,3.47
2022-09-25T23:04:11.774Z,3.40
2022-09-25T23:06:39.568Z,3.50
2022-09-25T23:09:08.393Z,3.70
2022-09-25T23:11:35.791Z,3.53
2022-09-25T23:14:09.050Z,3.30
2022-09-25T23:16:36.731Z,3.90
2022-09-25T23:19:04.700Z,3.43
2022-09-25T23:21:32.878Z,3.60
2022-09-25T23:24:01.580Z,3.47
2022-09-25T23:26:29.533Z,3.73
2022-09-25T23:28:58.243Z,3.40
2022-09-25T23:31:26.376Z,3.37
2022-09-25T23:33:53.775Z,3.40
2022-09-25T23:36:22.892Z,4.33
2022-09-25T23:38:51.111Z,3.70
2022-09-25T23:41:19.722Z,3.80
2022-09-25T23:43:47.864Z,3.67
2022-09-25T23:46:15.756Z,3.97
2022-09-25T23:48:43.699Z,3.77
2022-09-25T23:51:11.775Z,4.00
2022-09-25T23:53:39.203Z,3.93
2022-09-25T23:56:13.995Z,3.73
2022-09-25T23:58:41.645Z,3.97
